Time,TemperatureF,DewpointF,PressureIn,WindDirection,WindDirectionDegrees,WindSpeedMPH,WindSpeedGustMPH,Humidity,HourlyPrecipIn,Conditions,Clouds,dailyrainin,SolarRadiationWatts/m^2,SoftwareType,DateUTC
2013-08-15 00:03:00,56.7,52.9,30.22,South,180,0.0,0.0,87,0.00,,,0.00,0,Wunderground v.1.15,2013-08-15 05:03:00,
2013-08-15 00:08:00,56.7,53.2,30.22,South,180,1.0,2.0,88,0.00,,,0.00,0,Wunderground v.1.15,2013-08-15 05:08:00,
2013-08-15 00:14:00,57.0,53.5,30.21,SE,142,0.0,2.0,88,0.00,,,0.00,0,Wunderground v.1.15,2013-08-15 05:14:00,
2013-08-15 00:19:00,57.2,53.4,30.22,SE,142,0.0,2.0,87,0.00,,,0.00,0,Wunderground v.1.15,2013-08-15 05:19:00,
2013-08-15 00:24:00,57.3,53.5,30.22,SE,142,0.0,0.0,87,0.00,,,0.00,0,Wunderground v.1.15,2013-08-15 05:24:00,
2013-08-15 00:30:00,57.2,53.7,30.22,SE,142,0.0,0.0,88,0.00,,,0.00,0,Wunderground v.1.15,2013-08-15 05:30:00,
2013-08-15 00:35:00,57.3,53.5,30.22,SE,142,2.0,2.0,87,0.00,,,0.00,0,Wunderground v.1.15,2013-08-15 05:35:00,
2013-08-15 00:41:00,57.4,53.6,30.22,SE,142,0.0,0.0,87,0.00,,,0.00,0,Wunderground v.1.15,2013-08-15 05:41:00,
2013-08-15 00:46:00,57.3,53.5,30.22,SE,142,0.0,0.0,87,0.00,,,0.00,0,Wunderground v.1.15,2013-08-15 05:46:00,
2013-08-15 00:52:00,57.3,53.5,30.21,SE,142,0.0,0.0,87,0.00,,,0.00,0,Wunderground v.1.15,2013-08-15 05:52:00,
2013-08-15 00:57:00,57.3,53.5,30.21,SE,142,0.0,0.0,87,0.00,,,0.00,0,Wunderground v.1.15,2013-08-15 05:57:00,
2013-08-15 01:03:00,57.2,53.4,30.21,SE,142,0.0,0.0,87,0.00,,,0.00,0,Wunderground v.1.15,2013-08-15 06:03:00,
2013-08-15 01:08:00,57.2,53.7,30.21,SE,142,1.0,1.0,88,0.00,,,0.00,0,Wunderground v.1.15,2013-08-15 06:08:00,
2013-08-15 01:13:00,57.2,53.7,30.21,SE,142,0.0,0.0,88,0.00,,,0.00,0,Wunderground v.1.15,2013-08-15 06:13:00,
2013-08-15 01:19:00,57.1,53.6,30.21,SE,142,0.0,0.0,88,0.00,,,0.00,0,Wunderground v.1.15,2013-08-15 06:19:00,
2013-08-15 01:25:00,57.1,53.6,30.21,SE,142,0.0,1.0,88,0.00,,,0.00,0,Wunderground v.1.15,2013-08-15 06:25:00,
2013-08-15 01:30:00,57.1,53.9,30.21,SSE,148,0.0,1.0,89,0.00,,,0.00,0,Wunderground v.1.15,2013-08-15 06:30:00,
2013-08-15 01:36:00,57.3,54.1,30.21,SSE,148,0.0,1.0,89,0.00,,,0.00,0,Wunderground v.1.15,2013-08-15 06:36:00,
2013-08-15 01:41:00,57.3,53.8,30.21,SSE,148,1.0,1.0,88,0.00,,,0.00,0,Wunderground v.1.15,2013-08-15 06:41:00,
2013-08-15 01:46:00,57.3,53.8,30.21,SSE,148,0.0,4.0,88,0.00,,,0.00,0,Wunderground v.1.15,2013-08-15 06:46:00,
2013-08-15 01:52:00,57.3,53.8,30.21,SSE,148,0.0,0.0,88,0.00,,,0.00,0,Wunderground v.1.15,2013-08-15 06:52:00,
2013-08-15 01:57:00,57.2,53.7,30.21,SSE,148,0.0,0.0,88,0.00,,,0.00,0,Wunderground v.1.15,2013-08-15 06:57:00,
2013-08-15 02:02:00,57.1,53.6,30.21,SSE,148,0.0,0.0,88,0.00,,,0.00,0,Wunderground v.1.15,2013-08-15 07:02:00,
2013-08-15 02:07:00,57.0,53.5,30.20,SSE,148,0.0,1.0,88,0.00,,,0.00,0,Wunderground v.1.15,2013-08-15 07:07:00,
2013-08-15 02:12:00,56.9,53.7,30.20,SSE,148,0.0,0.0,89,0.00,,,0.00,0,Wunderground v.1.15,2013-08-15 07:12:00,
2013-08-15 02:17:00,56.9,53.7,30.20,SSE,148,0.0,1.0,89,0.00,,,0.00,0,Wunderground v.1.15,2013-08-15 07:17:00,
2013-08-15 02:22:00,56.8,53.6,30.20,SSE,148,0.0,0.0,89,0.00,,,0.00,0,Wunderground v.1.15,2013-08-15 07:22:00,
2013-08-15 02:27:00,56.7,53.5,30.20,SSE,148,0.0,0.0,89,0.00,,,0.00,0,Wunderground v.1.15,2013-08-15 07:27:00,
2013-08-15 02:32:00,56.5,53.3,30.20,SSE,148,0.0,0.0,89,0.00,,,0.00,0,Wunderground v.1.15,2013-08-15 07:32:00,
2013-08-15 02:37:00,56.4,53.5,30.20,SSE,148,0.0,0.0,90,0.00,,,0.00,0,Wunderground v.1.15,2013-08-15 07:37:00,
2013-08-15 02:42:00,56.2,53.3,30.20,SSE,148,0.0,0.0,90,0.00,,,0.00,0,Wunderground v.1.15,2013-08-15 07:42:00,
2013-08-15 02:47:00,56.0,53.1,30.21,SSE,148,0.0,0.0,90,0.00,,,0.00,0,Wunderground v.1.15,2013-08-15 07:47:00,
2013-08-15 02:52:00,55.9,53.0,30.20,SSE,148,0.0,0.0,90,0.00,,,0.00,0,Wunderground v.1.15,2013-08-15 07:52:00,
2013-08-15 02:57:00,55.7,52.8,30.21,SSE,148,0.0,0.0,90,0.00,,,0.00,0,Wunderground v.1.15,2013-08-15 07:57:00,
2013-08-15 03:02:00,55.4,52.5,30.20,SSE,148,0.0,0.0,90,0.00,,,0.00,0,Wunderground v.1.15,2013-08-15 08:02:00,
2013-08-15 03:07:00,55.2,52.6,30.20,SSE,148,0.0,0.0,91,0.00,,,0.00,0,Wunderground v.1.15,2013-08-15 08:07:00,
2013-08-15 03:12:00,55.0,52.4,30.20,SSE,148,0.0,0.0,91,0.00,,,0.00,0,Wunderground v.1.15,2013-08-15 08:12:00,
2013-08-15 03:17:00,54.9,52.6,30.20,SSE,148,0.0,0.0,92,0.00,,,0.00,0,Wunderground v.1.15,2013-08-15 08:17:00,
2013-08-15 03:22:00,54.9,52.6,30.20,SSE,148,0.0,0.0,92,0.00,,,0.00,0,Wunderground v.1.15,2013-08-15 08:22:00,
2013-08-15 03:27:00,54.6,52.3,30.20,SSE,148,0.0,0.0,92,0.00,,,0.00,0,Wunderground v.1.15,2013-08-15 08:27:00,
2013-08-15 03:33:00,54.3,52.0,30.20,SSE,148,0.0,0.0,92,0.00,,,0.00,0,Wunderground v.1.15,2013-08-15 08:33:00,
2013-08-15 03:38:00,54.3,52.3,30.20,SSE,148,0.0,0.0,93,0.00,,,0.00,0,Wunderground v.1.15,2013-08-15 08:38:00,
2013-08-15 03:43:00,54.2,52.2,30.20,SSE,148,0.0,0.0,93,0.00,,,0.00,0,Wunderground v.1.15,2013-08-15 08:43:00,
2013-08-15 03:48:00,54.1,52.1,30.20,SSE,148,0.0,0.0,93,0.00,,,0.00,0,Wunderground v.1.15,2013-08-15 08:48:00,
2013-08-15 03:53:00,54.0,52.0,30.20,SSE,148,0.0,0.0,93,0.00,,,0.00,0,Wunderground v.1.15,2013-08-15 08:53:00,
2013-08-15 03:58:00,53.9,51.9,30.20,SSE,148,0.0,0.0,93,0.00,,,0.00,0,Wunderground v.1.15,2013-08-15 08:58:00,
2013-08-15 04:04:00,53.6,51.6,30.20,SSE,148,0.0,0.0,93,0.00,,,0.00,0,Wunderground v.1.15,2013-08-15 09:04:00,
2013-08-15 04:09:00,53.2,50.9,30.20,SSE,148,0.0,0.0,92,0.00,,,0.00,0,Wunderground v.1.15,2013-08-15 09:09:00,
2013-08-15 04:14:00,53.0,51.0,30.20,SSE,148,0.0,0.0,93,0.00,,,0.00,0,Wunderground v.1.15,2013-08-15 09:14:00,
2013-08-15 04:19:00,52.9,50.9,30.20,SSE,148,0.0,0.0,93,0.00,,,0.00,0,Wunderground v.1.15,2013-08-15 09:19:00,
2013-08-15 04:24:00,52.8,51.1,30.20,SSE,148,0.0,0.0,94,0.00,,,0.00,0,Wunderground v.1.15,2013-08-15 09:24:00,
2013-08-15 04:29:00,52.7,51.0,30.20,SSE,148,0.0,0.0,94,0.00,,,0.00,0,Wunderground v.1.15,2013-08-15 09:29:00,
2013-08-15 04:34:00,52.6,50.9,30.21,SSE,148,0.0,0.0,94,0.00,,,0.00,0,Wunderground v.1.15,2013-08-15 09:34:00,
2013-08-15 04:39:00,52.7,51.3,30.20,SSE,148,0.0,0.0,95,0.00,,,0.00,0,Wunderground v.1.15,2013-08-15 09:39:00,
2013-08-15 04:44:00,52.5,50.8,30.20,SSE,148,0.0,0.0,94,0.00,,,0.00,0,Wunderground v.1.15,2013-08-15 09:44:00,
2013-08-15 04:49:00,52.3,50.6,30.20,SSE,148,0.0,0.0,94,0.00,,,0.00,0,Wunderground v.1.15,2013-08-15 09:49:00,
2013-08-15 04:54:00,52.5,51.1,30.20,SSE,148,0.0,0.0,95,0.00,,,0.00,0,Wunderground v.1.15,2013-08-15 09:54:00,
2013-08-15 04:59:00,52.4,51.0,30.20,SSE,148,0.0,0.0,95,0.00,,,0.00,0,Wunderground v.1.15,2013-08-15 09:59:00,
2013-08-15 05:04:00,52.5,51.1,30.20,SSE,148,0.0,0.0,95,0.00,,,0.00,0,Wunderground v.1.15,2013-08-15 10:04:00,
2013-08-15 05:09:00,52.4,51.0,30.20,SSE,148,0.0,0.0,95,0.00,,,0.00,0,Wunderground v.1.15,2013-08-15 10:09:00,
2013-08-15 05:14:00,52.3,50.9,30.20,SSE,148,0.0,0.0,95,0.00,,,0.00,0,Wunderground v.1.15,2013-08-15 10:14:00,
2013-08-15 05:19:00,52.0,50.3,30.20,SSE,148,0.0,0.0,94,0.00,,,0.00,0,Wunderground v.1.15,2013-08-15 10:19:00,
2013-08-15 05:24:00,51.9,50.5,30.21,SSE,148,0.0,0.0,95,0.00,,,0.00,0,Wunderground v.1.15,2013-08-15 10:24:00,
2013-08-15 05:29:00,51.9,50.5,30.21,SSE,148,0.0,0.0,95,0.00,,,0.00,0,Wunderground v.1.15,2013-08-15 10:29:00,
2013-08-15 05:34:00,52.1,51.0,30.20,SSE,148,0.0,0.0,96,0.00,,,0.00,0,Wunderground v.1.15,2013-08-15 10:34:00,
2013-08-15 05:39:00,52.1,51.0,30.20,SSE,148,0.0,0.0,96,0.00,,,0.00,0,Wunderground v.1.15,2013-08-15 10:39:00,
2013-08-15 05:44:00,52.1,51.0,30.20,SSE,148,0.0,0.0,96,0.00,,,0.00,0,Wunderground v.1.15,2013-08-15 10:44:00,
2013-08-15 05:49:00,52.1,50.7,30.20,SSE,148,0.0,0.0,95,0.00,,,0.00,0,Wunderground v.1.15,2013-08-15 10:49:00,
2013-08-15 05:54:00,51.9,50.5,30.20,SSE,148,0.0,0.0,95,0.00,,,0.00,0,Wunderground v.1.15,2013-08-15 10:54:00,
2013-08-15 05:59:00,52.1,51.0,30.20,SSE,148,0.0,0.0,96,0.00,,,0.00,5,Wunderground v.1.15,2013-08-15 10:59:00,
2013-08-15 06:04:00,52.4,51.6,30.20,SSE,148,0.0,0.0,97,0.00,,,0.00,7,Wunderground v.1.15,2013-08-15 11:04:00,
2013-08-15 06:09:00,52.4,51.3,30.20,SSE,148,0.0,0.0,96,0.00,,,0.00,11,Wunderground v.1.15,2013-08-15 11:09:00,
2013-08-15 06:14:00,52.4,51.3,30.20,SSE,148,0.0,0.0,96,0.00,,,0.00,14,Wunderground v.1.15,2013-08-15 11:14:00,
2013-08-15 06:19:00,52.4,51.3,30.20,SSE,148,0.0,0.0,96,0.00,,,0.00,19,Wunderground v.1.15,2013-08-15 11:19:00,
2013-08-15 06:24:00,52.6,51.8,30.20,SSE,148,0.0,0.0,97,0.00,,,0.00,21,Wunderground v.1.15,2013-08-15 11:24:00,
2013-08-15 06:29:00,52.8,52.0,30.20,SSE,148,0.0,0.0,97,0.00,,,0.00,26,Wunderground v.1.15,2013-08-15 11:29:00,
2013-08-15 06:34:00,52.9,51.8,30.21,SSE,148,0.0,1.0,96,0.00,,,0.00,28,Wunderground v.1.15,2013-08-15 11:34:00,
2013-08-15 06:39:00,53.1,52.3,30.21,SSE,148,0.0,1.0,97,0.00,,,0.00,39,Wunderground v.1.15,2013-08-15 11:39:00,
2013-08-15 06:44:00,53.3,52.5,30.21,SSE,148,0.0,0.0,97,0.00,,,0.00,39,Wunderground v.1.15,2013-08-15 11:44:00,
2013-08-15 06:49:00,53.6,52.8,30.21,SSE,148,0.0,0.0,97,0.00,,,0.00,46,Wunderground v.1.15,2013-08-15 11:49:00,
2013-08-15 06:54:00,53.8,53.0,30.21,SSE,148,0.0,1.0,97,0.00,,,0.00,51,Wunderground v.1.15,2013-08-15 11:54:00,
2013-08-15 07:00:00,54.2,53.4,30.21,SSE,148,0.0,0.0,97,0.00,,,0.00,47,Wunderground v.1.15,2013-08-15 12:00:00,
2013-08-15 07:05:00,54.5,53.7,30.21,SSE,148,0.0,2.0,97,0.00,,,0.00,53,Wunderground v.1.15,2013-08-15 12:05:00,
2013-08-15 07:10:00,55.1,54.3,30.21,SSE,152,0.0,0.0,97,0.00,,,0.00,62,Wunderground v.1.15,2013-08-15 12:10:00,
2013-08-15 07:15:00,55.5,54.7,30.22,SSE,152,0.0,2.0,97,0.00,,,0.00,74,Wunderground v.1.15,2013-08-15 12:15:00,
2013-08-15 07:20:00,55.7,54.9,30.22,SSE,152,0.0,1.0,97,0.00,,,0.00,76,Wunderground v.1.15,2013-08-15 12:20:00,
2013-08-15 07:25:00,56.2,55.4,30.22,SSE,152,1.0,1.0,97,0.00,,,0.00,76,Wunderground v.1.15,2013-08-15 12:25:00,
2013-08-15 07:30:00,56.6,56.0,30.22,SSE,153,2.0,2.0,98,0.00,,,0.00,84,Wunderground v.1.15,2013-08-15 12:30:00,
2013-08-15 07:35:00,56.9,56.1,30.22,SSE,153,1.0,5.0,97,0.00,,,0.00,100,Wunderground v.1.15,2013-08-15 12:35:00,
2013-08-15 07:40:00,57.2,56.4,30.22,SSE,153,0.0,1.0,97,0.00,,,0.00,104,Wunderground v.1.15,2013-08-15 12:40:00,
2013-08-15 07:45:00,57.5,56.7,30.22,SSE,153,0.0,1.0,97,0.00,,,0.00,109,Wunderground v.1.15,2013-08-15 12:45:00,
2013-08-15 07:50:00,57.9,57.1,30.22,SSE,153,0.0,0.0,97,0.00,,,0.00,116,Wunderground v.1.15,2013-08-15 12:50:00,
2013-08-15 07:55:00,58.2,57.4,30.22,SSE,153,1.0,1.0,97,0.00,,,0.00,118,Wunderground v.1.15,2013-08-15 12:55:00,
2013-08-15 08:00:00,58.5,57.4,30.22,SSE,153,0.0,0.0,96,0.00,,,0.00,128,Wunderground v.1.15,2013-08-15 13:00:00,
2013-08-15 08:05:00,58.9,57.8,30.22,SSE,153,0.0,1.0,96,0.00,,,0.00,134,Wunderground v.1.15,2013-08-15 13:05:00,
2013-08-15 08:10:00,59.1,57.7,30.22,SSE,153,0.0,1.0,95,0.00,,,0.00,141,Wunderground v.1.15,2013-08-15 13:10:00,
2013-08-15 08:16:00,59.4,57.7,30.22,SSE,153,1.0,2.0,94,0.00,,,0.00,142,Wunderground v.1.15,2013-08-15 13:16:00,
2013-08-15 08:21:00,59.6,57.6,30.22,SSE,155,4.0,6.0,93,0.00,,,0.00,149,Wunderground v.1.15,2013-08-15 13:21:00,
2013-08-15 08:26:00,59.9,57.6,30.23,SSE,154,0.0,6.0,92,0.00,,,0.00,165,Wunderground v.1.15,2013-08-15 13:26:00,
2013-08-15 08:31:00,60.3,58.0,30.23,SSE,155,1.0,1.0,92,0.00,,,0.00,169,Wunderground v.1.15,2013-08-15 13:31:00,
2013-08-15 08:36:00,60.5,57.6,30.23,SSE,155,0.0,5.0,90,0.00,,,0.00,172,Wunderground v.1.15,2013-08-15 13:36:00,
2013-08-15 08:41:00,60.7,57.7,30.22,SSE,155,0.0,1.0,90,0.00,,,0.00,179,Wunderground v.1.15,2013-08-15 13:41:00,
2013-08-15 08:46:00,60.9,57.6,30.22,SSE,155,0.0,1.0,89,0.00,,,0.00,181,Wunderground v.1.15,2013-08-15 13:46:00,
2013-08-15 08:51:00,61.2,57.9,30.22,SSE,155,1.0,2.0,89,0.00,,,0.00,195,Wunderground v.1.15,2013-08-15 13:51:00,
2013-08-15 08:56:00,61.4,58.1,30.23,SSE,155,2.0,4.0,89,0.00,,,0.00,211,Wunderground v.1.15,2013-08-15 13:56:00,
2013-08-15 09:01:00,61.6,57.7,30.23,South,169,1.0,1.0,87,0.00,,,0.00,202,Wunderground v.1.15,2013-08-15 14:01:00,
2013-08-15 09:06:00,61.8,57.9,30.22,South,169,0.0,1.0,87,0.00,,,0.00,158,Wunderground v.1.15,2013-08-15 14:06:00,
2013-08-15 09:11:00,62.1,58.5,30.22,South,169,0.0,0.0,88,0.00,,,0.00,151,Wunderground v.1.15,2013-08-15 14:11:00,
2013-08-15 09:16:00,62.3,58.4,30.22,South,169,0.0,0.0,87,0.00,,,0.00,211,Wunderground v.1.15,2013-08-15 14:16:00,
2013-08-15 09:21:00,62.8,59.2,30.22,South,169,1.0,1.0,88,0.00,,,0.00,635,Wunderground v.1.15,2013-08-15 14:21:00,
2013-08-15 09:26:00,63.6,59.3,30.22,South,169,1.0,5.0,86,0.00,,,0.00,594,Wunderground v.1.15,2013-08-15 14:26:00,
2013-08-15 09:31:00,64.5,60.2,30.22,South,169,2.0,5.0,86,0.00,,,0.00,598,Wunderground v.1.15,2013-08-15 14:31:00,
2013-08-15 09:36:00,65.5,60.2,30.22,South,171,2.0,5.0,83,0.00,,,0.00,598,Wunderground v.1.15,2013-08-15 14:36:00,
2013-08-15 09:41:00,66.2,60.2,30.22,SSW,193,3.0,6.0,81,0.00,,,0.00,585,Wunderground v.1.15,2013-08-15 14:41:00,
2013-08-15 09:46:00,67.0,59.9,30.22,South,184,5.0,6.0,78,0.00,,,0.00,619,Wunderground v.1.15,2013-08-15 14:46:00,
2013-08-15 09:51:00,67.5,59.3,30.22,South,190,3.0,5.0,75,0.00,,,0.00,636,Wunderground v.1.15,2013-08-15 14:51:00,
2013-08-15 09:57:00,68.0,59.8,30.22,SSW,193,3.0,5.0,75,0.00,,,0.00,654,Wunderground v.1.15,2013-08-15 14:57:00,
2013-08-15 10:02:00,68.5,59.5,30.22,SSW,192,2.0,4.0,73,0.00,,,0.00,666,Wunderground v.1.15,2013-08-15 15:02:00,
2013-08-15 10:07:00,68.7,59.7,30.22,SSW,200,2.0,5.0,73,0.00,,,0.00,670,Wunderground v.1.15,2013-08-15 15:07:00,
2013-08-15 10:12:00,69.2,60.6,30.22,SSW,200,3.0,3.0,74,0.00,,,0.00,680,Wunderground v.1.15,2013-08-15 15:12:00,
2013-08-15 10:17:00,69.6,60.2,30.22,SSW,202,5.0,6.0,72,0.00,,,0.00,693,Wunderground v.1.15,2013-08-15 15:17:00,
2013-08-15 10:22:00,69.9,59.7,30.21,SW,224,4.0,4.0,70,0.00,,,0.00,700,Wunderground v.1.15,2013-08-15 15:22:00,
2013-08-15 10:27:00,70.2,60.0,30.21,SW,236,1.0,6.0,70,0.00,,,0.00,710,Wunderground v.1.15,2013-08-15 15:27:00,
2013-08-15 10:32:00,70.8,60.1,30.21,SW,236,4.0,6.0,69,0.00,,,0.00,728,Wunderground v.1.15,2013-08-15 15:32:00,
2013-08-15 10:37:00,71.2,58.8,30.21,SW,236,4.0,7.0,65,0.00,,,0.00,740,Wunderground v.1.15,2013-08-15 15:37:00,
2013-08-15 10:42:00,71.4,59.0,30.21,WSW,238,2.0,5.0,65,0.00,,,0.00,754,Wunderground v.1.15,2013-08-15 15:42:00,
2013-08-15 10:48:00,71.6,58.8,30.21,SW,231,4.0,8.0,64,0.00,,,0.00,765,Wunderground v.1.15,2013-08-15 15:48:00,
2013-08-15 10:53:00,71.9,58.6,30.21,WNW,296,0.0,8.0,63,0.00,,,0.00,777,Wunderground v.1.15,2013-08-15 15:53:00,
2013-08-15 10:58:00,72.3,58.1,30.21,SW,232,4.0,8.0,61,0.00,,,0.00,775,Wunderground v.1.15,2013-08-15 15:58:00,
2013-08-15 11:03:00,72.6,53.4,30.21,SW,234,0.0,3.0,51,0.00,,,0.00,795,Wunderground v.1.15,2013-08-15 16:03:00,
2013-08-15 11:08:00,73.2,57.1,30.20,SSW,195,3.0,7.0,57,0.00,,,0.00,817,Wunderground v.1.15,2013-08-15 16:08:00,
2013-08-15 11:13:00,73.4,55.2,30.20,SW,234,3.0,7.0,53,0.00,,,0.00,895,Wunderground v.1.15,2013-08-15 16:13:00,
2013-08-15 11:19:00,73.4,55.7,30.20,WSW,245,6.0,8.0,54,0.00,,,0.00,211,Wunderground v.1.15,2013-08-15 16:19:00,
2013-08-15 11:24:00,73.1,56.0,30.20,SW,218,5.0,8.0,55,0.00,,,0.00,1042,Wunderground v.1.15,2013-08-15 16:24:00,
2013-08-15 11:29:00,73.8,56.6,30.20,WSW,249,11.0,11.0,55,0.00,,,0.00,596,Wunderground v.1.15,2013-08-15 16:29:00,
2013-08-15 11:34:00,73.7,54.4,30.20,West,270,5.0,11.0,51,0.00,,,0.00,399,Wunderground v.1.15,2013-08-15 16:34:00,
2013-08-15 11:39:00,73.5,54.3,30.20,SSW,201,8.0,11.0,51,0.00,,,0.00,420,Wunderground v.1.15,2013-08-15 16:39:00,
2013-08-15 11:44:00,73.3,55.1,30.20,SW,215,6.0,6.0,53,0.00,,,0.00,306,Wunderground v.1.15,2013-08-15 16:44:00,
2013-08-15 11:49:00,73.0,55.4,30.20,WSW,242,4.0,6.0,54,0.00,,,0.00,315,Wunderground v.1.15,2013-08-15 16:49:00,
2013-08-15 11:54:00,72.8,52.5,30.20,WSW,240,0.0,6.0,49,0.00,,,0.00,318,Wunderground v.1.15,2013-08-15 16:54:00,
2013-08-15 11:59:00,72.9,53.2,30.20,WSW,240,1.0,6.0,50,0.00,,,0.00,265,Wunderground v.1.15,2013-08-15 16:59:00,
2013-08-15 12:04:00,73.2,55.0,30.20,WSW,240,0.0,2.0,53,0.00,,,0.00,276,Wunderground v.1.15,2013-08-15 17:04:00,
2013-08-15 12:09:00,73.1,56.5,30.20,WSW,240,1.0,2.0,56,0.00,,,0.00,309,Wunderground v.1.15,2013-08-15 17:09:00,
2013-08-15 12:14:00,73.2,57.1,30.20,WSW,250,3.0,3.0,57,0.00,,,0.00,415,Wunderground v.1.15,2013-08-15 17:14:00,
2013-08-15 12:19:00,73.4,55.7,30.19,West,263,0.0,4.0,54,0.00,,,0.00,455,Wunderground v.1.15,2013-08-15 17:19:00,
2013-08-15 12:24:00,73.9,56.2,30.19,West,262,0.0,5.0,54,0.00,,,0.00,810,Wunderground v.1.15,2013-08-15 17:24:00,
2013-08-15 12:29:00,74.4,54.0,30.19,WNW,293,1.0,6.0,49,0.00,,,0.00,960,Wunderground v.1.15,2013-08-15 17:29:00,
2013-08-15 12:35:00,74.8,54.4,30.18,WNW,296,0.0,5.0,49,0.00,,,0.00,954,Wunderground v.1.15,2013-08-15 17:35:00,
2013-08-15 12:40:00,75.1,56.3,30.18,South,176,2.0,5.0,52,0.00,,,0.00,1005,Wunderground v.1.15,2013-08-15 17:40:00,
2013-08-15 12:45:00,75.0,54.0,30.18,South,184,0.0,9.0,48,0.00,,,0.00,227,Wunderground v.1.15,2013-08-15 17:45:00,
2013-08-15 12:51:00,74.3,55.0,30.18,SW,218,6.0,6.0,51,0.00,,,0.00,248,Wunderground v.1.15,2013-08-15 17:51:00,
2013-08-15 12:56:00,73.8,54.0,30.18,SW,216,4.0,6.0,50,0.00,,,0.00,394,Wunderground v.1.15,2013-08-15 17:56:00,
2013-08-15 13:01:00,73.9,56.2,30.18,WSW,250,1.0,3.0,54,0.00,,,0.00,425,Wunderground v.1.15,2013-08-15 18:01:00,
2013-08-15 13:06:00,74.3,55.5,30.18,West,278,5.0,5.0,52,0.00,,,0.00,367,Wunderground v.1.15,2013-08-15 18:06:00,
2013-08-15 13:11:00,74.8,55.5,30.18,NNW,328,1.0,6.0,51,0.00,,,0.00,1060,Wunderground v.1.15,2013-08-15 18:11:00,
2013-08-15 13:16:00,75.4,57.1,30.18,WSW,254,2.0,11.0,53,0.00,,,0.00,953,Wunderground v.1.15,2013-08-15 18:16:00,
2013-08-15 13:22:00,76.1,55.5,30.18,WNW,301,2.0,6.0,49,0.00,,,0.00,965,Wunderground v.1.15,2013-08-15 18:22:00,
2013-08-15 13:27:00,76.1,52.6,30.17,NW,315,0.0,6.0,44,0.00,,,0.00,480,Wunderground v.1.15,2013-08-15 18:27:00,
2013-08-15 13:32:00,75.6,53.4,30.17,SW,232,5.0,6.0,46,0.00,,,0.00,223,Wunderground v.1.15,2013-08-15 18:32:00,
2013-08-15 13:37:00,75.1,55.2,30.17,WSW,243,0.0,6.0,50,0.00,,,0.00,176,Wunderground v.1.15,2013-08-15 18:37:00,
2013-08-15 13:42:00,74.5,57.3,30.17,WSW,243,0.0,4.0,55,0.00,,,0.00,181,Wunderground v.1.15,2013-08-15 18:42:00,
2013-08-15 13:47:00,73.8,56.1,30.18,SW,228,0.0,7.0,54,0.00,,,0.00,223,Wunderground v.1.15,2013-08-15 18:47:00,
2013-08-15 13:52:00,73.5,55.8,30.17,SW,234,0.0,6.0,54,0.00,,,0.00,283,Wunderground v.1.15,2013-08-15 18:52:00,
2013-08-15 13:57:00,73.4,56.7,30.17,West,279,0.0,7.0,56,0.00,,,0.00,309,Wunderground v.1.15,2013-08-15 18:57:00,
2013-08-15 14:03:00,73.4,56.7,30.17,SW,227,3.0,7.0,56,0.00,,,0.00,330,Wunderground v.1.15,2013-08-15 19:03:00,
2013-08-15 14:08:00,73.7,57.5,30.17,WSW,245,0.0,7.0,57,0.00,,,0.00,439,Wunderground v.1.15,2013-08-15 19:08:00,
2013-08-15 14:13:00,74.0,54.2,30.17,WSW,242,5.0,7.0,50,0.00,,,0.00,529,Wunderground v.1.15,2013-08-15 19:13:00,
2013-08-15 14:18:00,74.2,53.8,30.17,WSW,251,2.0,7.0,49,0.00,,,0.00,687,Wunderground v.1.15,2013-08-15 19:18:00,
2013-08-15 14:24:00,74.7,56.9,30.16,SSW,211,4.0,5.0,54,0.00,,,0.00,974,Wunderground v.1.15,2013-08-15 19:24:00,
2013-08-15 14:29:00,75.4,57.1,30.16,SSW,196,3.0,7.0,53,0.00,,,0.00,1025,Wunderground v.1.15,2013-08-15 19:29:00,
2013-08-15 14:34:00,76.1,57.2,30.16,SW,230,5.0,8.0,52,0.00,,,0.00,1028,Wunderground v.1.15,2013-08-15 19:34:00,
2013-08-15 14:39:00,75.8,55.3,30.16,SW,229,4.0,9.0,49,0.00,,,0.00,239,Wunderground v.1.15,2013-08-15 19:39:00,
2013-08-15 14:44:00,75.5,56.6,30.17,SW,226,1.0,6.0,52,0.00,,,0.00,218,Wunderground v.1.15,2013-08-15 19:44:00,
2013-08-15 14:49:00,75.3,57.0,30.16,WNW,289,0.0,6.0,53,0.00,,,0.00,276,Wunderground v.1.15,2013-08-15 19:49:00,
2013-08-15 14:54:00,75.1,56.3,30.17,WNW,297,0.0,5.0,52,0.00,,,0.00,380,Wunderground v.1.15,2013-08-15 19:54:00,
2013-08-15 14:59:00,75.1,55.7,30.16,WNW,286,1.0,7.0,51,0.00,,,0.00,404,Wunderground v.1.15,2013-08-15 19:59:00,
2013-08-15 15:04:00,75.1,56.3,30.16,SW,234,4.0,7.0,52,0.00,,,0.00,432,Wunderground v.1.15,2013-08-15 20:04:00,
2013-08-15 15:09:00,75.4,56.0,30.16,SW,221,6.0,8.0,51,0.00,,,0.00,1014,Wunderground v.1.15,2013-08-15 20:09:00,
2013-08-15 15:14:00,75.9,54.8,30.16,West,266,4.0,7.0,48,0.00,,,0.00,1039,Wunderground v.1.15,2013-08-15 20:14:00,
2013-08-15 15:19:00,76.1,55.0,30.16,WNW,291,1.0,7.0,48,0.00,,,0.00,292,Wunderground v.1.15,2013-08-15 20:19:00,
2013-08-15 15:24:00,75.7,54.6,30.16,WSW,242,4.0,6.0,48,0.00,,,0.00,207,Wunderground v.1.15,2013-08-15 20:24:00,
2013-08-15 15:30:00,75.1,55.7,30.16,West,274,1.0,6.0,51,0.00,,,0.00,181,Wunderground v.1.15,2013-08-15 20:30:00,
2013-08-15 15:34:00,74.7,55.4,30.16,NNW,336,1.0,6.0,51,0.00,,,0.00,176,Wunderground v.1.15,2013-08-15 20:34:00,
2013-08-15 15:39:00,74.4,56.7,30.16,NW,313,0.0,6.0,54,0.00,,,0.00,186,Wunderground v.1.15,2013-08-15 20:39:00,
2013-08-15 15:45:00,74.2,58.9,30.16,NW,313,0.0,2.0,59,0.00,,,0.00,206,Wunderground v.1.15,2013-08-15 20:45:00,
2013-08-15 15:50:00,74.1,55.9,30.16,NW,323,0.0,1.0,53,0.00,,,0.00,229,Wunderground v.1.15,2013-08-15 20:50:00,
2013-08-15 15:55:00,74.3,56.6,30.16,NNW,327,1.0,2.0,54,0.00,,,0.00,271,Wunderground v.1.15,2013-08-15 20:55:00,
2013-08-15 16:00:00,74.7,56.4,30.16,NNW,327,0.0,0.0,53,0.00,,,0.00,336,Wunderground v.1.15,2013-08-15 21:00:00,
2013-08-15 16:05:00,75.0,57.2,30.16,NNW,327,0.0,0.0,54,0.00,,,0.00,410,Wunderground v.1.15,2013-08-15 21:05:00,
2013-08-15 16:10:00,75.5,54.4,30.15,NNW,327,0.0,0.0,48,0.00,,,0.00,817,Wunderground v.1.15,2013-08-15 21:10:00,
2013-08-15 16:15:00,76.5,55.3,30.15,NNW,327,1.0,2.0,48,0.00,,,0.00,714,Wunderground v.1.15,2013-08-15 21:15:00,
2013-08-15 16:20:00,77.1,57.0,30.15,NW,321,1.0,1.0,50,0.00,,,0.00,606,Wunderground v.1.15,2013-08-15 21:20:00,
2013-08-15 16:26:00,77.5,56.3,30.15,WNW,284,1.0,12.0,48,0.00,,,0.00,649,Wunderground v.1.15,2013-08-15 21:26:00,
2013-08-15 16:31:00,77.5,55.1,30.15,NW,325,5.0,6.0,46,0.00,,,0.00,599,Wunderground v.1.15,2013-08-15 21:31:00,
2013-08-15 16:36:00,77.3,55.5,30.16,SW,233,5.0,7.0,47,0.00,,,0.00,476,Wunderground v.1.15,2013-08-15 21:36:00,
2013-08-15 16:41:00,77.0,53.4,30.15,West,261,1.0,5.0,44,0.00,,,0.00,512,Wunderground v.1.15,2013-08-15 21:41:00,
2013-08-15 16:46:00,76.7,53.8,30.15,SW,225,1.0,7.0,45,0.00,,,0.00,526,Wunderground v.1.15,2013-08-15 21:46:00,
2013-08-15 16:51:00,76.7,53.8,30.16,SW,236,6.0,8.0,45,0.00,,,0.00,499,Wunderground v.1.15,2013-08-15 21:51:00,
2013-08-15 16:56:00,76.5,54.2,30.15,SW,229,1.0,10.0,46,0.00,,,0.00,529,Wunderground v.1.15,2013-08-15 21:56:00,
2013-08-15 17:01:00,76.6,54.3,30.15,SW,236,5.0,6.0,46,0.00,,,0.00,494,Wunderground v.1.15,2013-08-15 22:01:00,
2013-08-15 17:06:00,76.7,52.5,30.16,SW,232,6.0,10.0,43,0.00,,,0.00,480,Wunderground v.1.15,2013-08-15 22:06:00,
2013-08-15 17:11:00,76.8,53.2,30.16,WSW,237,0.0,5.0,44,0.00,,,0.00,466,Wunderground v.1.15,2013-08-15 22:11:00,
2013-08-15 17:16:00,76.9,55.7,30.15,SW,229,5.0,6.0,48,0.00,,,0.00,439,Wunderground v.1.15,2013-08-15 22:16:00,
2013-08-15 17:21:00,76.8,55.0,30.16,SSW,208,2.0,5.0,47,0.00,,,0.00,294,Wunderground v.1.15,2013-08-15 22:21:00,
2013-08-15 17:26:00,76.5,54.8,30.16,SSW,211,3.0,8.0,47,0.00,,,0.00,236,Wunderground v.1.15,2013-08-15 22:26:00,
2013-08-15 17:31:00,76.0,56.0,30.16,SW,228,5.0,6.0,50,0.00,,,0.00,244,Wunderground v.1.15,2013-08-15 22:31:00,
2013-08-15 17:36:00,75.7,55.7,30.16,SW,220,4.0,6.0,50,0.00,,,0.00,253,Wunderground v.1.15,2013-08-15 22:36:00,
2013-08-15 17:41:00,75.6,56.2,30.16,SW,236,6.0,6.0,51,0.00,,,0.00,244,Wunderground v.1.15,2013-08-15 22:41:00,
2013-08-15 17:47:00,75.3,55.4,30.16,SW,215,8.0,8.0,50,0.00,,,0.00,253,Wunderground v.1.15,2013-08-15 22:47:00,
2013-08-15 17:52:00,75.0,57.2,30.15,SSW,212,2.0,6.0,54,0.00,,,0.00,192,Wunderground v.1.15,2013-08-15 22:52:00,
2013-08-15 17:57:00,74.9,56.6,30.16,SSW,212,0.0,6.0,53,0.00,,,0.00,200,Wunderground v.1.15,2013-08-15 22:57:00,
2013-08-15 18:02:00,74.7,55.4,30.15,SSW,211,4.0,7.0,51,0.00,,,0.00,142,Wunderground v.1.15,2013-08-15 23:02:00,
2013-08-15 18:07:00,74.4,55.6,30.15,SSW,208,2.0,7.0,52,0.00,,,0.00,120,Wunderground v.1.15,2013-08-15 23:07:00,
2013-08-15 18:12:00,74.2,57.0,30.15,SSW,208,2.0,3.0,55,0.00,,,0.00,105,Wunderground v.1.15,2013-08-15 23:12:00,
2013-08-15 18:17:00,73.9,56.7,30.16,SSW,210,2.0,5.0,55,0.00,,,0.00,102,Wunderground v.1.15,2013-08-15 23:17:00,
2013-08-15 18:22:00,73.7,57.5,30.16,SSW,210,0.0,1.0,57,0.00,,,0.00,105,Wunderground v.1.15,2013-08-15 23:22:00,
2013-08-15 18:27:00,73.6,57.4,30.16,SSW,210,0.0,3.0,57,0.00,,,0.00,84,Wunderground v.1.15,2013-08-15 23:27:00,
2013-08-15 18:32:00,73.5,57.8,30.16,SSW,210,0.0,1.0,58,0.00,,,0.00,70,Wunderground v.1.15,2013-08-15 23:32:00,
2013-08-15 18:37:00,73.3,57.1,30.16,SSW,210,0.0,1.0,57,0.00,,,0.00,67,Wunderground v.1.15,2013-08-15 23:37:00,
2013-08-15 18:42:00,73.2,58.9,30.16,SSW,210,0.0,0.0,61,0.00,,,0.00,62,Wunderground v.1.15,2013-08-15 23:42:00,
2013-08-15 18:47:00,73.1,58.4,30.16,SSW,210,0.0,1.0,60,0.00,,,0.00,54,Wunderground v.1.15,2013-08-15 23:47:00,
2013-08-15 18:52:00,72.9,60.0,30.16,SSW,210,0.0,0.0,64,0.00,,,0.00,42,Wunderground v.1.15,2013-08-15 23:52:00,
2013-08-15 18:57:00,72.6,61.0,30.16,SSW,210,0.0,0.0,67,0.00,,,0.00,33,Wunderground v.1.15,2013-08-15 23:57:00,
2013-08-15 19:02:00,72.2,61.0,30.16,SSW,210,0.0,0.0,68,0.00,,,0.00,28,Wunderground v.1.15,2013-08-16 00:02:00,
2013-08-15 19:08:00,71.9,61.2,30.16,SSW,210,0.0,0.0,69,0.00,,,0.00,23,Wunderground v.1.15,2013-08-16 00:08:00,
2013-08-15 19:13:00,71.6,60.1,30.16,SSW,210,0.0,0.0,67,0.00,,,0.00,21,Wunderground v.1.15,2013-08-16 00:13:00,
2013-08-15 19:18:00,71.2,60.9,30.16,SSW,210,0.0,0.0,70,0.00,,,0.00,21,Wunderground v.1.15,2013-08-16 00:18:00,
2013-08-15 19:23:00,70.9,61.8,30.16,SSW,210,0.0,0.0,73,0.00,,,0.00,19,Wunderground v.1.15,2013-08-16 00:23:00,
2013-08-15 19:28:00,70.6,61.1,30.16,SSW,210,0.0,0.0,72,0.00,,,0.00,18,Wunderground v.1.15,2013-08-16 00:28:00,
2013-08-15 19:33:00,70.3,60.8,30.16,SSW,210,0.0,0.0,72,0.00,,,0.00,16,Wunderground v.1.15,2013-08-16 00:33:00,
2013-08-15 19:38:00,69.9,60.5,30.16,SSW,210,0.0,0.0,72,0.00,,,0.00,11,Wunderground v.1.15,2013-08-16 00:38:00,
2013-08-15 19:43:00,69.6,59.8,30.16,SSW,210,0.0,0.0,71,0.00,,,0.00,9,Wunderground v.1.15,2013-08-16 00:43:00,
2013-08-15 19:48:00,69.4,59.2,30.16,SSW,210,0.0,0.0,70,0.00,,,0.00,7,Wunderground v.1.15,2013-08-16 00:48:00,
2013-08-15 19:53:00,69.3,59.5,30.17,SSW,210,0.0,0.0,71,0.00,,,0.00,5,Wunderground v.1.15,2013-08-16 00:53:00,
2013-08-15 19:58:00,69.1,60.5,30.17,SSW,210,0.0,0.0,74,0.00,,,0.00,0,Wunderground v.1.15,2013-08-16 00:58:00,
2013-08-15 20:03:00,68.7,59.3,30.17,SSW,210,0.0,0.0,72,0.00,,,0.00,0,Wunderground v.1.15,2013-08-16 01:03:00,
2013-08-15 20:08:00,68.4,59.0,30.17,SSW,210,0.0,0.0,72,0.00,,,0.00,0,Wunderground v.1.15,2013-08-16 01:08:00,
2013-08-15 20:14:00,68.1,59.9,30.17,SSW,210,0.0,0.0,75,0.00,,,0.00,0,Wunderground v.1.15,2013-08-16 01:14:00,
2013-08-15 20:19:00,67.7,59.5,30.17,SSW,210,0.0,0.0,75,0.00,,,0.00,0,Wunderground v.1.15,2013-08-16 01:19:00,
2013-08-15 20:24:00,67.4,59.9,30.17,SSW,210,0.0,0.0,77,0.00,,,0.00,0,Wunderground v.1.15,2013-08-16 01:24:00,
2013-08-15 20:29:00,67.1,60.4,30.17,SSW,210,0.0,0.0,79,0.00,,,0.00,0,Wunderground v.1.15,2013-08-16 01:29:00,
2013-08-15 20:34:00,66.5,59.1,30.17,SSW,210,0.0,0.0,77,0.00,,,0.00,0,Wunderground v.1.15,2013-08-16 01:34:00,
2013-08-15 20:40:00,65.9,57.7,30.17,SSW,210,0.0,0.0,75,0.00,,,0.00,0,Wunderground v.1.15,2013-08-16 01:40:00,
2013-08-15 20:45:00,65.5,58.1,30.17,SSW,210,0.0,0.0,77,0.00,,,0.00,0,Wunderground v.1.15,2013-08-16 01:45:00,
2013-08-15 20:50:00,65.1,58.1,30.17,SSW,210,0.0,0.0,78,0.00,,,0.00,0,Wunderground v.1.15,2013-08-16 01:50:00,
2013-08-15 20:55:00,64.8,58.5,30.17,SSW,210,0.0,0.0,80,0.00,,,0.00,0,Wunderground v.1.15,2013-08-16 01:55:00,
2013-08-15 21:00:00,64.4,58.1,30.18,SSW,210,0.0,0.0,80,0.00,,,0.00,0,Wunderground v.1.15,2013-08-16 02:00:00,
2013-08-15 21:05:00,64.0,57.4,30.18,SSW,210,0.0,0.0,79,0.00,,,0.00,0,Wunderground v.1.15,2013-08-16 02:05:00,
2013-08-15 21:10:00,63.7,57.1,30.18,SSW,210,0.0,0.0,79,0.00,,,0.00,0,Wunderground v.1.15,2013-08-16 02:10:00,
2013-08-15 21:15:00,63.4,57.1,30.18,SSW,210,0.0,0.0,80,0.00,,,0.00,0,Wunderground v.1.15,2013-08-16 02:15:00,
2013-08-15 21:20:00,63.2,57.6,30.18,SSW,210,0.0,0.0,82,0.00,,,0.00,0,Wunderground v.1.15,2013-08-16 02:20:00,
2013-08-15 21:25:00,62.8,56.9,30.18,SSW,210,0.0,0.0,81,0.00,,,0.00,0,Wunderground v.1.15,2013-08-16 02:25:00,
2013-08-15 21:30:00,62.6,56.7,30.18,SSW,210,0.0,0.0,81,0.00,,,0.00,0,Wunderground v.1.15,2013-08-16 02:30:00,
2013-08-15 21:35:00,62.3,56.4,30.18,SSW,210,0.0,0.0,81,0.00,,,0.00,0,Wunderground v.1.15,2013-08-16 02:35:00,
2013-08-15 21:40:00,62.2,56.3,30.18,SSW,210,0.0,0.0,81,0.00,,,0.00,0,Wunderground v.1.15,2013-08-16 02:40:00,
2013-08-15 21:45:00,62.0,56.4,30.18,SSW,210,0.0,0.0,82,0.00,,,0.00,0,Wunderground v.1.15,2013-08-16 02:45:00,
2013-08-15 21:50:00,61.6,56.0,30.18,SSW,210,0.0,0.0,82,0.00,,,0.00,0,Wunderground v.1.15,2013-08-16 02:50:00,
2013-08-15 21:55:00,61.4,56.2,30.18,SSW,210,0.0,0.0,83,0.00,,,0.00,0,Wunderground v.1.15,2013-08-16 02:55:00,
2013-08-15 22:00:00,61.1,55.9,30.18,SSW,210,0.0,0.0,83,0.00,,,0.00,0,Wunderground v.1.15,2013-08-16 03:00:00,
2013-08-15 22:05:00,60.9,55.7,30.19,SSW,210,0.0,0.0,83,0.00,,,0.00,0,Wunderground v.1.15,2013-08-16 03:05:00,
2013-08-15 22:10:00,60.7,55.8,30.19,SSW,210,0.0,0.0,84,0.00,,,0.00,0,Wunderground v.1.15,2013-08-16 03:10:00,
2013-08-15 22:15:00,60.5,55.6,30.19,SSW,210,0.0,1.0,84,0.00,,,0.00,0,Wunderground v.1.15,2013-08-16 03:15:00,
2013-08-15 22:20:00,60.2,55.7,30.19,SSW,210,0.0,0.0,85,0.00,,,0.00,0,Wunderground v.1.15,2013-08-16 03:20:00,
2013-08-15 22:25:00,60.0,55.5,30.19,SSW,210,0.0,0.0,85,0.00,,,0.00,0,Wunderground v.1.15,2013-08-16 03:25:00,
2013-08-15 22:30:00,59.9,55.4,30.19,SSW,210,0.0,0.0,85,0.00,,,0.00,0,Wunderground v.1.15,2013-08-16 03:30:00,
2013-08-15 22:35:00,59.7,55.5,30.19,SSW,210,0.0,0.0,86,0.00,,,0.00,0,Wunderground v.1.15,2013-08-16 03:35:00,
2013-08-15 22:40:00,59.5,55.3,30.19,SSW,210,0.0,0.0,86,0.00,,,0.00,0,Wunderground v.1.15,2013-08-16 03:40:00,
2013-08-15 22:45:00,59.4,55.2,30.19,SSW,210,0.0,0.0,86,0.00,,,0.00,0,Wunderground v.1.15,2013-08-16 03:45:00,
2013-08-15 22:50:00,59.4,55.2,30.19,SSW,210,0.0,1.0,86,0.00,,,0.00,0,Wunderground v.1.15,2013-08-16 03:50:00,
2013-08-15 22:55:00,59.4,55.5,30.19,SSW,210,0.0,1.0,87,0.00,,,0.00,0,Wunderground v.1.15,2013-08-16 03:55:00,
2013-08-15 23:00:00,59.5,55.9,30.19,SSW,210,0.0,0.0,88,0.00,,,0.00,0,Wunderground v.1.15,2013-08-16 04:00:00,
2013-08-15 23:01:00,59.5,55.9,30.19,SSW,210,0.0,0.0,88,0.00,,,0.00,0,Wunderground v.1.15,2013-08-16 04:01:00,
2013-08-15 23:02:00,59.5,55.9,30.19,SSW,210,0.0,1.0,88,0.00,,,0.00,0,Wunderground v.1.15,2013-08-16 04:02:00,
2013-08-15 23:07:00,59.7,56.1,30.19,SSW,210,1.0,2.0,88,0.00,,,0.00,0,Wunderground v.1.15,2013-08-16 04:07:00,
2013-08-15 23:12:00,59.7,56.1,30.19,SSW,210,0.0,0.0,88,0.00,,,0.00,0,Wunderground v.1.15,2013-08-16 04:12:00,
2013-08-15 23:17:00,59.7,56.1,30.19,SSW,210,0.0,1.0,88,0.00,,,0.00,0,Wunderground v.1.15,2013-08-16 04:17:00,
2013-08-15 23:22:00,59.7,56.1,30.20,SSW,210,0.0,0.0,88,0.00,,,0.00,0,Wunderground v.1.15,2013-08-16 04:22:00,
2013-08-15 23:27:00,59.6,56.0,30.20,SSW,210,0.0,1.0,88,0.00,,,0.00,0,Wunderground v.1.15,2013-08-16 04:27:00,
2013-08-15 23:32:00,59.6,56.4,30.20,SSW,210,0.0,1.0,89,0.00,,,0.00,0,Wunderground v.1.15,2013-08-16 04:32:00,
2013-08-15 23:37:00,59.6,56.0,30.20,SSW,210,0.0,1.0,88,0.00,,,0.00,0,Wunderground v.1.15,2013-08-16 04:37:00,
2013-08-15 23:42:00,59.5,55.6,30.20,SSW,210,0.0,1.0,87,0.00,,,0.00,0,Wunderground v.1.15,2013-08-16 04:42:00,
2013-08-15 23:47:00,59.5,55.3,30.20,SSW,210,0.0,1.0,86,0.00,,,0.00,0,Wunderground v.1.15,2013-08-16 04:47:00,
2013-08-15 23:52:00,59.5,55.0,30.20,SSW,210,0.0,0.0,85,0.00,,,0.00,0,Wunderground v.1.15,2013-08-16 04:52:00,
2013-08-15 23:57:00,59.4,54.9,30.21,SSW,210,0.0,1.0,85,0.00,,,0.00,0,Wunderground v.1.15,2013-08-16 04:57:00,